Time;durP1;ratioP1;P1;durP2;ratioP2;P2;SDS_P1;SDS_P2;PMS_P1;PMS_P2;Temp;Humidity;BMP_temperature;BMP_pressure;BME280_temperature;BME280_humidity;BME280_pressure;Samples;Min_cycle;Max_cycle;Signal;HPM_P1;HPM_P2
2021/12/20 00:00:53;;;;;;;22.35;3.17;;;;;;;;;;5091828;28;20036;-60
2021/12/20 00:03:19;;;;;;;16.75;2.75;;;;;;;;;;5090874;28;20059;-61
2021/12/20 00:05:45;;;;;;;23.05;3.13;;;;;;;;;;5091121;28;20063;-61
2021/12/20 00:08:11;;;;;;;24.38;4.13;;;;;;;;;;5086435;28;20036;-61
2021/12/20 00:10:37;;;;;;;20.42;2.80;;;;;;;;;;5093036;28;20040;-61
2021/12/20 00:13:04;;;;;;;20.52;2.92;;;;;;;;;;5089645;28;20040;-60
2021/12/20 00:15:30;;;;;;;22.58;3.60;;;;;;;;;;5091445;28;20044;-60
2021/12/20 00:17:56;;;;;;;16.10;2.88;;;;;;;;;;5085895;28;20047;-61
2021/12/20 00:20:22;;;;;;;22.08;3.42;;;;;;;;;;5089708;28;20084;-60
2021/12/20 00:22:48;;;;;;;21.70;3.15;;;;;;;;;;5089509;28;20044;-60
2021/12/20 00:25:14;;;;;;;23.55;2.83;;;;;;;;;;5089680;28;20550;-60
2021/12/20 00:27:40;;;;;;;22.35;4.32;;;;;;;;;;5089659;28;20508;-62
2021/12/20 00:30:07;;;;;;;26.83;3.40;;;;;;;;;;5089047;28;20483;-61
2021/12/20 00:32:33;;;;;;;19.23;2.92;;;;;;;;;;5090190;28;20065;-60
2021/12/20 00:35:00;;;;;;;20.50;2.90;;;;;;;;;;5089710;28;20031;-61
2021/12/20 00:40:23;;;;;;;23.48;3.15;;;;;;;;;;5090918;28;20072;-61
2021/12/20 00:42:56;;;;;;;27.67;3.72;;;;;;;;;;5091080;28;20035;-60
2021/12/20 00:45:23;;;;;;;18.98;3.22;;;;;;;;;;5104242;28;20066;-61
2021/12/20 00:47:49;;;;;;;24.50;3.47;;;;;;;;;;5090453;28;20768;-61
2021/12/20 00:50:17;;;;;;;25.00;2.70;;;;;;;;;;5089523;28;20036;-61
2021/12/20 00:52:43;;;;;;;18.55;3.22;;;;;;;;;;5092177;28;20066;-60
2021/12/20 00:55:10;;;;;;;18.38;3.00;;;;;;;;;;5088608;28;20387;-60
2021/12/20 00:57:36;;;;;;;24.63;3.30;;;;;;;;;;5091607;28;20047;-61
2021/12/20 01:00:04;;;;;;;23.42;3.80;;;;;;;;;;5091650;28;20050;-59
2021/12/20 01:02:30;;;;;;;18.15;2.35;;;;;;;;;;5091115;28;20032;-61
2021/12/20 01:04:56;;;;;;;21.23;3.00;;;;;;;;;;5087796;28;20044;-60
2021/12/20 01:07:22;;;;;;;24.00;2.58;;;;;;;;;;5089798;28;20498;-61
2021/12/20 01:09:48;;;;;;;23.50;3.63;;;;;;;;;;5088962;28;20040;-60
2021/12/20 01:12:18;;;;;;;20.67;2.83;;;;;;;;;;5091836;28;20036;-61
2021/12/20 01:14:45;;;;;;;24.00;3.35;;;;;;;;;;5089359;28;20051;-60
2021/12/20 01:17:11;;;;;;;22.17;3.55;;;;;;;;;;5091530;28;20059;-61
2021/12/20 01:19:37;;;;;;;16.77;3.17;;;;;;;;;;5090538;28;20141;-59
2021/12/20 01:22:04;;;;;;;20.75;3.78;;;;;;;;;;5091768;28;20028;-62
2021/12/20 01:24:30;;;;;;;16.23;2.58;;;;;;;;;;5089135;28;20379;-60
2021/12/20 01:26:56;;;;;;;29.02;2.95;;;;;;;;;;5090479;28;20094;-61
2021/12/20 01:29:23;;;;;;;14.35;2.75;;;;;;;;;;5089266;28;20056;-62
2021/12/20 01:31:49;;;;;;;18.25;2.58;;;;;;;;;;5090748;28;20036;-60
2021/12/20 01:34:15;;;;;;;18.00;3.22;;;;;;;;;;5087468;28;20494;-60
2021/12/20 01:36:41;;;;;;;21.90;2.92;;;;;;;;;;5086158;28;20083;-61
2021/12/20 01:39:07;;;;;;;27.15;4.95;;;;;;;;;;5089933;28;20032;-61
2021/12/20 01:41:38;;;;;;;21.63;4.22;;;;;;;;;;5090270;28;20093;-60
2021/12/20 01:44:04;;;;;;;16.55;2.80;;;;;;;;;;5089051;28;20498;-61
2021/12/20 01:46:30;;;;;;;25.80;2.70;;;;;;;;;;5083725;28;20043;-60
2021/12/20 01:48:58;;;;;;;18.08;2.67;;;;;;;;;;5072713;28;20558;-61
2021/12/20 01:51:48;;;;;;;22.17;2.92;;;;;;;;;;5082888;28;20046;-60
2021/12/20 01:54:14;;;;;;;23.80;2.90;;;;;;;;;;5088325;28;20139;-59
2021/12/20 01:56:42;;;;;;;25.92;3.67;;;;;;;;;;5088916;28;20090;-60
2021/12/20 01:59:09;;;;;;;20.63;2.50;;;;;;;;;;5090925;28;20393;-60
2021/12/20 02:01:35;;;;;;;22.92;3.00;;;;;;;;;;5089622;28;20043;-60
2021/12/20 02:04:05;;;;;;;19.55;2.35;;;;;;;;;;5084918;28;20563;-61
2021/12/20 02:06:35;;;;;;;19.70;3.67;;;;;;;;;;5088105;28;20080;-60
2021/12/20 02:09:03;;;;;;;24.58;4.03;;;;;;;;;;5088287;28;20047;-60
2021/12/20 02:11:30;;;;;;;22.00;3.45;;;;;;;;;;5084474;28;20036;-61
2021/12/20 02:13:56;;;;;;;17.90;2.70;;;;;;;;;;5090528;28;20043;-60
2021/12/20 02:16:22;;;;;;;15.75;2.70;;;;;;;;;;5084838;28;20040;-61
2021/12/20 02:18:48;;;;;;;16.90;2.95;;;;;;;;;;5090493;28;20860;-59
2021/12/20 02:21:14;;;;;;;19.25;2.90;;;;;;;;;;5086526;28;20134;-60
2021/12/20 02:23:40;;;;;;;23.23;4.35;;;;;;;;;;5090166;28;20063;-60
2021/12/20 02:26:07;;;;;;;20.85;3.08;;;;;;;;;;5088467;28;20039;-59
2021/12/20 02:28:41;;;;;;;27.80;2.90;;;;;;;;;;5085032;28;20044;-61
2021/12/20 02:38:55;;;;;;;22.83;2.55;;;;;;;;;;5090083;28;20462;-61
2021/12/20 02:41:24;;;;;;;15.57;3.38;;;;;;;;;;5071316;28;20068;-60
2021/12/20 02:49:03;;;;;;;20.85;2.85;;;;;;;;;;5089053;28;20063;-61
2021/12/20 02:51:29;;;;;;;19.13;2.38;;;;;;;;;;5089074;28;20040;-61
2021/12/20 02:53:57;;;;;;;16.17;2.58;;;;;;;;;;5089125;28;20068;-59
2021/12/20 02:56:24;;;;;;;24.13;4.43;;;;;;;;;;5086962;28;20040;-59
2021/12/20 02:58:50;;;;;;;27.13;3.08;;;;;;;;;;5085501;28;20437;-60
2021/12/20 03:01:16;;;;;;;14.63;2.53;;;;;;;;;;5088680;28;20130;-61
2021/12/20 03:03:42;;;;;;;19.70;2.90;;;;;;;;;;5088629;28;20036;-60
2021/12/20 03:06:18;;;;;;;17.10;2.78;;;;;;;;;;5089694;28;20040;-60
2021/12/20 03:08:46;;;;;;;16.35;2.53;;;;;;;;;;5087894;28;20044;-60
2021/12/20 03:11:12;;;;;;;24.67;2.78;;;;;;;;;;5088700;28;20052;-60
2021/12/20 03:13:39;;;;;;;11.57;2.30;;;;;;;;;;5094040;28;20044;-61
2021/12/20 03:16:06;;;;;;;20.15;3.05;;;;;;;;;;5092943;28;20533;-60
2021/12/20 03:18:32;;;;;;;15.45;2.28;;;;;;;;;;5091474;28;20509;-60
2021/12/20 03:20:58;;;;;;;22.67;3.03;;;;;;;;;;5093295;28;20393;-61
2021/12/20 03:23:24;;;;;;;19.33;2.50;;;;;;;;;;5092983;28;20129;-61
2021/12/20 03:25:50;;;;;;;21.20;3.03;;;;;;;;;;5093973;28;20093;-60
2021/12/20 03:28:16;;;;;;;15.02;2.40;;;;;;;;;;5092978;28;20152;-60
2021/12/20 03:30:42;;;;;;;15.57;2.38;;;;;;;;;;5092168;28;20055;-60
2021/12/20 03:33:08;;;;;;;18.83;2.33;;;;;;;;;;5091583;28;20128;-60
2021/12/20 03:35:34;;;;;;;17.75;2.22;;;;;;;;;;5093641;28;20523;-60
2021/12/20 03:38:00;;;;;;;15.38;2.65;;;;;;;;;;5090660;28;20074;-59
2021/12/20 03:40:26;;;;;;;10.85;2.05;;;;;;;;;;5091368;28;20118;-59
2021/12/20 03:42:52;;;;;;;15.60;2.38;;;;;;;;;;5091453;28;20148;-60
2021/12/20 03:45:18;;;;;;;13.85;3.88;;;;;;;;;;5088846;28;20079;-60
2021/12/20 03:47:45;;;;;;;13.00;2.22;;;;;;;;;;5082795;28;20086;-60
2021/12/20 03:50:11;;;;;;;12.68;2.30;;;;;;;;;;5092136;28;20060;-60
2021/12/20 03:52:38;;;;;;;14.80;2.28;;;;;;;;;;5090129;28;20050;-60
2021/12/20 03:55:09;;;;;;;16.10;2.58;;;;;;;;;;5087496;28;20136;-60
2021/12/20 03:57:35;;;;;;;10.73;2.58;;;;;;;;;;5089045;28;20043;-60
2021/12/20 04:00:01;;;;;;;20.42;2.72;;;;;;;;;;5078597;28;20028;-60
2021/12/20 04:02:28;;;;;;;20.00;2.55;;;;;;;;;;5090256;28;20043;-61
2021/12/20 04:04:54;;;;;;;14.32;2.70;;;;;;;;;;5092348;28;20059;-60
2021/12/20 04:07:20;;;;;;;14.27;1.88;;;;;;;;;;5090861;28;20036;-62
2021/12/20 04:09:46;;;;;;;16.15;2.58;;;;;;;;;;5091420;28;20043;-60
2021/12/20 04:12:12;;;;;;;10.82;1.85;;;;;;;;;;5089117;28;20032;-61
2021/12/20 04:14:38;;;;;;;17.70;3.13;;;;;;;;;;5089551;28;20032;-61
2021/12/20 04:17:04;;;;;;;10.57;2.00;;;;;;;;;;5091230;28;20036;-60
2021/12/20 04:19:30;;;;;;;8.70;1.73;;;;;;;;;;5090227;28;20093;-61
2021/12/20 04:21:56;;;;;;;16.85;2.53;;;;;;;;;;5091681;28;20036;-60
2021/12/20 04:24:22;;;;;;;11.35;2.60;;;;;;;;;;5089083;28;20050;-60
2021/12/20 04:26:48;;;;;;;8.63;1.58;;;;;;;;;;5089961;28;20093;-60
2021/12/20 04:29:14;;;;;;;12.27;2.20;;;;;;;;;;5090065;28;20533;-60
2021/12/20 04:31:40;;;;;;;12.93;2.28;;;;;;;;;;5087733;28;20050;-60
2021/12/20 04:34:06;;;;;;;11.65;1.65;;;;;;;;;;5084332;28;20102;-60
2021/12/20 04:36:33;;;;;;;17.73;2.10;;;;;;;;;;5086426;28;20041;-60
2021/12/20 04:39:01;;;;;;;18.92;2.00;;;;;;;;;;5088690;28;20040;-60
2021/12/20 04:41:27;;;;;;;12.15;1.52;;;;;;;;;;5087502;28;20040;-60
2021/12/20 04:43:53;;;;;;;10.38;1.50;;;;;;;;;;5091235;28;20097;-60
2021/12/20 04:46:19;;;;;;;12.02;1.70;;;;;;;;;;5088816;28;20047;-61
2021/12/20 04:48:45;;;;;;;15.02;1.85;;;;;;;;;;5089966;28;20085;-60
2021/12/20 04:51:11;;;;;;;18.23;2.10;;;;;;;;;;5091503;28;20123;-60
2021/12/20 04:53:37;;;;;;;12.30;2.40;;;;;;;;;;5088532;28;20131;-60
2021/12/20 04:56:03;;;;;;;12.30;1.90;;;;;;;;;;5088447;28;20056;-60
2021/12/20 04:58:29;;;;;;;10.77;1.92;;;;;;;;;;5092122;28;20383;-60
2021/12/20 05:00:55;;;;;;;13.23;2.45;;;;;;;;;;5090308;28;20039;-61
2021/12/20 05:03:21;;;;;;;9.55;1.20;;;;;;;;;;5088481;28;20445;-60
2021/12/20 05:05:47;;;;;;;8.63;1.52;;;;;;;;;;5090842;28;20036;-60
2021/12/20 05:08:15;;;;;;;14.98;2.17;;;;;;;;;;5090799;28;20039;-60
2021/12/20 05:10:42;;;;;;;12.13;1.60;;;;;;;;;;5091515;28;20502;-60
2021/12/20 05:13:09;;;;;;;14.48;2.22;;;;;;;;;;5089725;28;20151;-60
2021/12/20 05:15:36;;;;;;;10.73;1.80;;;;;;;;;;5089216;28;20134;-61
2021/12/20 05:18:02;;;;;;;12.75;1.83;;;;;;;;;;5089655;28;20039;-60
2021/12/20 05:20:28;;;;;;;11.20;1.42;;;;;;;;;;5091317;28;20044;-60
2021/12/20 05:22:55;;;;;;;11.00;1.48;;;;;;;;;;5090742;28;20119;-60
2021/12/20 05:25:21;;;;;;;13.10;1.77;;;;;;;;;;5091183;28;20544;-61
2021/12/20 05:27:47;;;;;;;9.73;1.90;;;;;;;;;;5088098;28;20058;-60
2021/12/20 05:30:14;;;;;;;9.70;2.03;;;;;;;;;;5091094;28;20486;-59
2021/12/20 05:32:40;;;;;;;10.13;1.70;;;;;;;;;;5090546;28;20089;-61
2021/12/20 05:35:07;;;;;;;9.80;1.88;;;;;;;;;;5089180;28;20046;-61
2021/12/20 05:37:33;;;;;;;11.68;2.03;;;;;;;;;;5089616;28;20062;-59
2021/12/20 05:39:59;;;;;;;11.23;1.30;;;;;;;;;;5089897;28;20417;-60
2021/12/20 05:42:25;;;;;;;13.10;1.92;;;;;;;;;;5090673;28;20032;-60
2021/12/20 05:44:52;;;;;;;9.10;1.38;;;;;;;;;;5090643;28;20052;-61
2021/12/20 05:47:18;;;;;;;10.38;1.40;;;;;;;;;;5090801;28;20039;-61
2021/12/20 05:49:45;;;;;;;9.95;1.52;;;;;;;;;;5088087;28;20046;-60
2021/12/20 05:52:11;;;;;;;10.35;1.67;;;;;;;;;;5086629;28;20195;-60
2021/12/20 05:54:37;;;;;;;9.15;1.60;;;;;;;;;;5087315;28;20040;-60
2021/12/20 05:57:03;;;;;;;8.98;1.58;;;;;;;;;;5089177;28;20063;-60
2021/12/20 05:59:29;;;;;;;11.98;1.98;;;;;;;;;;5087594;28;20429;-59
2021/12/20 06:03:44;;;;;;;11.90;1.77;;;;;;;;;;5126618;27;20321;-62
2021/12/20 06:06:10;;;;;;;11.38;1.55;;;;;;;;;;5106408;28;20493;-62
2021/12/20 06:08:36;;;;;;;7.68;2.13;;;;;;;;;;5107000;28;20063;-63
2021/12/20 06:11:02;;;;;;;7.90;1.92;;;;;;;;;;5106424;28;20436;-61
2021/12/20 06:13:28;;;;;;;7.72;1.80;;;;;;;;;;5107732;28;20035;-62
2021/12/20 06:15:54;;;;;;;8.38;1.50;;;;;;;;;;5108681;28;20118;-60
2021/12/20 06:18:20;;;;;;;8.95;1.65;;;;;;;;;;5107418;28;20123;-62
2021/12/20 06:20:46;;;;;;;8.85;1.58;;;;;;;;;;5106485;28;20050;-60
2021/12/20 06:23:13;;;;;;;8.23;1.63;;;;;;;;;;5106621;28;20124;-60
2021/12/20 06:25:39;;;;;;;11.63;2.85;;;;;;;;;;5107499;28;20040;-60
2021/12/20 06:28:05;;;;;;;6.85;1.50;;;;;;;;;;5106938;28;20336;-60
2021/12/20 06:30:31;;;;;;;10.40;1.90;;;;;;;;;;5107358;28;20028;-61
2021/12/20 06:32:57;;;;;;;8.70;2.33;;;;;;;;;;5105885;28;20130;-61
2021/12/20 06:35:23;;;;;;;7.18;1.50;;;;;;;;;;5106860;28;20401;-61
2021/12/20 06:37:59;;;;;;;8.73;1.52;;;;;;;;;;5106973;28;20554;-61
2021/12/20 06:40:25;;;;;;;11.13;1.60;;;;;;;;;;5106531;28;20035;-61
2021/12/20 06:42:51;;;;;;;8.40;1.65;;;;;;;;;;5107028;28;20036;-62
2021/12/20 06:45:17;;;;;;;9.25;1.40;;;;;;;;;;5106841;28;20042;-61
2021/12/20 06:47:44;;;;;;;22.10;2.95;;;;;;;;;;5106906;28;20075;-61
2021/12/20 06:50:10;;;;;;;7.22;1.20;;;;;;;;;;5107054;28;20039;-60
2021/12/20 06:52:36;;;;;;;6.93;1.30;;;;;;;;;;5106465;28;20437;-60
2021/12/20 06:55:02;;;;;;;6.38;1.40;;;;;;;;;;5106352;28;20238;-61
2021/12/20 06:57:28;;;;;;;7.45;1.70;;;;;;;;;;5106527;28;20472;-61
2021/12/20 06:59:54;;;;;;;9.82;2.10;;;;;;;;;;5106418;28;20092;-61
2021/12/20 07:02:20;;;;;;;5.72;1.25;;;;;;;;;;5106561;28;20052;-61
2021/12/20 07:04:46;;;;;;;8.45;1.60;;;;;;;;;;5106311;28;21709;-61
2021/12/20 07:07:12;;;;;;;8.40;1.63;;;;;;;;;;5106988;28;20040;-61
2021/12/20 07:09:38;;;;;;;9.48;1.40;;;;;;;;;;5104698;28;20491;-61
2021/12/20 07:12:04;;;;;;;5.25;1.20;;;;;;;;;;5106367;28;20039;-61
2021/12/20 07:14:31;;;;;;;4.07;0.98;;;;;;;;;;5095561;28;20395;-61
2021/12/20 07:16:57;;;;;;;7.18;0.98;;;;;;;;;;5092769;28;20043;-60
2021/12/20 07:19:23;;;;;;;8.30;1.35;;;;;;;;;;5090317;28;20039;-60
2021/12/20 07:21:50;;;;;;;8.93;1.50;;;;;;;;;;5092302;28;20129;-61
2021/12/20 07:24:16;;;;;;;6.15;1.30;;;;;;;;;;5092369;28;20036;-61
2021/12/20 07:26:42;;;;;;;5.20;1.38;;;;;;;;;;5091945;28;20131;-60
2021/12/20 07:29:08;;;;;;;7.35;1.30;;;;;;;;;;5092325;28;20138;-61
2021/12/20 07:31:34;;;;;;;7.53;1.10;;;;;;;;;;5092588;28;20040;-61
2021/12/20 07:34:00;;;;;;;9.98;1.30;;;;;;;;;;5092553;28;20032;-62
2021/12/20 07:36:26;;;;;;;9.82;1.52;;;;;;;;;;5092667;28;20028;-60
2021/12/20 07:38:53;;;;;;;6.82;1.40;;;;;;;;;;5092103;28;20432;-59
2021/12/20 07:41:20;;;;;;;9.95;1.25;;;;;;;;;;5091937;28;20444;-61
2021/12/20 07:43:47;;;;;;;5.57;1.30;;;;;;;;;;5090004;28;20042;-61
2021/12/20 07:46:14;;;;;;;8.93;1.73;;;;;;;;;;5091253;28;20038;-61
2021/12/20 07:48:40;;;;;;;11.90;1.92;;;;;;;;;;5092386;28;20068;-61
2021/12/20 07:51:06;;;;;;;8.40;1.58;;;;;;;;;;5091874;28;20071;-60
2021/12/20 07:53:32;;;;;;;7.22;1.35;;;;;;;;;;5090667;28;20048;-60
2021/12/20 07:55:58;;;;;;;7.97;1.65;;;;;;;;;;5093316;28;20442;-60
2021/12/20 07:58:24;;;;;;;7.32;1.40;;;;;;;;;;5090587;28;20069;-60
2021/12/20 08:00:50;;;;;;;5.25;1.60;;;;;;;;;;5091479;28;20486;-60
2021/12/20 08:03:17;;;;;;;6.65;1.65;;;;;;;;;;5092413;28;20048;-61
2021/12/20 08:05:43;;;;;;;9.18;1.98;;;;;;;;;;5089220;28;20396;-60
2021/12/20 08:08:09;;;;;;;13.95;2.50;;;;;;;;;;5091373;28;20051;-62
2021/12/20 08:10:36;;;;;;;8.27;3.28;;;;;;;;;;5092112;28;20236;-61
2021/12/20 08:13:02;;;;;;;8.23;3.33;;;;;;;;;;5090879;28;20032;-61
2021/12/20 08:15:28;;;;;;;9.77;3.47;;;;;;;;;;5091577;28;20040;-62
2021/12/20 08:17:55;;;;;;;12.98;3.40;;;;;;;;;;5091474;28;20039;-61
2021/12/20 08:20:21;;;;;;;6.95;2.42;;;;;;;;;;5091381;28;20119;-61
2021/12/20 08:22:47;;;;;;;9.40;2.67;;;;;;;;;;5090405;28;20086;-61
2021/12/20 08:25:13;;;;;;;13.45;2.88;;;;;;;;;;5090319;28;20398;-60
2021/12/20 08:27:40;;;;;;;9.10;2.55;;;;;;;;;;5091846;28;20371;-61
2021/12/20 08:30:07;;;;;;;8.45;2.70;;;;;;;;;;5091630;28;20101;-60
2021/12/20 08:32:33;;;;;;;5.70;2.33;;;;;;;;;;5091946;28;20410;-61
2021/12/20 08:34:59;;;;;;;8.50;2.38;;;;;;;;;;5091876;28;20036;-60
2021/12/20 08:37:25;;;;;;;12.48;2.92;;;;;;;;;;5092010;28;20040;-60
2021/12/20 08:39:52;;;;;;;13.77;3.00;;;;;;;;;;5092194;28;20162;-60
2021/12/20 08:42:19;;;;;;;9.65;2.72;;;;;;;;;;5091895;28;20478;-60
2021/12/20 08:44:45;;;;;;;9.88;2.83;;;;;;;;;;5092085;28;20152;-60
2021/12/20 08:47:11;;;;;;;11.38;3.55;;;;;;;;;;5090558;28;20040;-60
2021/12/20 08:49:37;;;;;;;13.00;3.35;;;;;;;;;;5117559;27;20032;-61
2021/12/20 08:52:04;;;;;;;11.43;3.60;;;;;;;;;;5091633;28;20032;-61
2021/12/20 08:54:30;;;;;;;12.25;3.45;;;;;;;;;;5091708;28;20039;-61
2021/12/20 08:56:57;;;;;;;11.75;3.28;;;;;;;;;;5092036;28;20032;-60
2021/12/20 08:59:23;;;;;;;9.88;3.22;;;;;;;;;;5091511;28;20098;-60
2021/12/20 09:01:49;;;;;;;11.48;3.42;;;;;;;;;;5091597;28;20440;-60
2021/12/20 09:04:16;;;;;;;18.45;3.30;;;;;;;;;;5091023;28;20087;-60
2021/12/20 09:06:42;;;;;;;9.18;3.00;;;;;;;;;;5091521;28;20047;-61
2021/12/20 09:09:10;;;;;;;11.65;2.67;;;;;;;;;;5090953;28;20044;-62
2021/12/20 09:11:36;;;;;;;14.05;2.92;;;;;;;;;;5091312;28;20040;-60
2021/12/20 09:14:03;;;;;;;11.63;3.15;;;;;;;;;;5091350;28;20036;-62
2021/12/20 09:16:29;;;;;;;18.30;3.08;;;;;;;;;;5091300;28;20055;-61
2021/12/20 09:18:55;;;;;;;13.13;3.13;;;;;;;;;;5091238;28;20077;-61
2021/12/20 09:21:22;;;;;;;13.93;2.50;;;;;;;;;;5091219;28;20641;-61
2021/12/20 09:23:48;;;;;;;16.10;2.75;;;;;;;;;;5091283;28;20082;-60
2021/12/20 09:26:14;;;;;;;12.57;2.88;;;;;;;;;;5091249;28;20040;-60
2021/12/20 09:28:41;;;;;;;14.10;3.10;;;;;;;;;;5089643;28;20055;-59
2021/12/20 09:31:08;;;;;;;17.42;2.58;;;;;;;;;;5091037;28;20036;-60
2021/12/20 09:33:35;;;;;;;16.65;3.28;;;;;;;;;;5086380;28;20075;-61
2021/12/20 09:36:01;;;;;;;23.55;4.85;;;;;;;;;;5090936;28;20024;-60
2021/12/20 09:38:30;;;;;;;21.08;6.10;;;;;;;;;;5090725;28;20036;-61
2021/12/20 09:41:15;;;;;;;57.78;27.05;;;;;;;;;;5090457;28;20040;-61
2021/12/20 09:43:45;;;;;;;46.72;20.30;;;;;;;;;;5090291;28;20482;-61
2021/12/20 09:46:12;;;;;;;41.90;20.98;;;;;;;;;;5089427;28;20039;-61
2021/12/20 09:48:38;;;;;;;18.48;5.22;;;;;;;;;;5090354;28;20036;-61
2021/12/20 09:51:06;;;;;;;30.90;10.85;;;;;;;;;;5090397;28;20035;-61
2021/12/20 09:53:32;;;;;;;20.45;5.78;;;;;;;;;;5090503;28;20427;-61
2021/12/20 09:55:59;;;;;;;22.63;4.78;;;;;;;;;;5089180;28;20039;-61
2021/12/20 09:58:26;;;;;;;14.40;4.03;;;;;;;;;;5090243;28;20055;-61
2021/12/20 10:00:53;;;;;;;23.67;3.30;;;;;;;;;;5090394;28;20036;-60
2021/12/20 10:03:23;;;;;;;23.42;3.78;;;;;;;;;;5090152;28;20048;-61
2021/12/20 10:05:54;;;;;;;22.95;3.40;;;;;;;;;;5089909;28;20044;-61
2021/12/20 10:08:26;;;;;;;26.80;3.28;;;;;;;;;;5090389;28;20040;-61
2021/12/20 10:10:53;;;;;;;18.50;3.72;;;;;;;;;;5090351;28;20078;-61
2021/12/20 10:13:24;;;;;;;25.08;4.32;;;;;;;;;;5090868;28;20039;-61
2021/12/20 10:15:50;;;;;;;29.77;3.20;;;;;;;;;;5089406;28;20123;-62
2021/12/20 10:18:16;;;;;;;16.25;2.83;;;;;;;;;;5090777;28;20405;-61
2021/12/20 10:20:48;;;;;;;22.80;3.20;;;;;;;;;;5090282;28;20036;-61
2021/12/20 10:23:33;;;;;;;15.90;3.27;;;;;;;;;;5090549;28;20036;-61
2021/12/20 10:26:05;;;;;;;17.88;3.13;;;;;;;;;;5090568;28;20044;-61
2021/12/20 10:28:34;;;;;;;18.10;3.13;;;;;;;;;;5088904;28;20048;-62
2021/12/20 10:31:06;;;;;;;18.50;4.03;;;;;;;;;;5090541;28;20028;-61
2021/12/20 10:33:32;;;;;;;23.67;3.45;;;;;;;;;;5090532;28;20506;-61
2021/12/20 10:35:59;;;;;;;15.15;3.28;;;;;;;;;;5090200;28;20052;-60
2021/12/20 10:38:33;;;;;;;15.93;2.80;;;;;;;;;;5090575;28;20150;-62
2021/12/20 10:41:11;;;;;;;18.70;3.22;;;;;;;;;;5090240;28;20044;-61
2021/12/20 10:43:40;;;;;;;18.85;3.38;;;;;;;;;;5090101;28;20510;-62
2021/12/20 10:46:11;;;;;;;19.10;3.33;;;;;;;;;;5090644;28;20489;-60
2021/12/20 10:48:37;;;;;;;17.60;4.18;;;;;;;;;;5091192;28;20036;-62
2021/12/20 10:51:03;;;;;;;21.10;3.80;;;;;;;;;;5087428;28;20036;-61
2021/12/20 10:53:29;;;;;;;13.90;2.65;;;;;;;;;;5092717;28;20042;-61
2021/12/20 10:55:55;;;;;;;13.75;3.15;;;;;;;;;;5093973;28;20044;-61
2021/12/20 10:58:23;;;;;;;20.75;3.60;;;;;;;;;;5094060;28;20576;-61
2021/12/20 11:01:04;;;;;;;18.90;3.53;;;;;;;;;;5093603;28;20486;-60
2021/12/20 11:03:36;;;;;;;13.30;3.03;;;;;;;;;;5093372;28;20059;-62
2021/12/20 11:11:30;;;;;;;17.35;2.72;;;;;;;;;;5093885;28;20402;-61
2021/12/20 11:13:58;;;;;;;18.40;2.70;;;;;;;;;;5093154;28;20040;-61
2021/12/20 11:16:35;;;;;;;16.83;3.20;;;;;;;;;;5093704;28;20136;-61
2021/12/20 11:19:15;;;;;;;15.38;2.60;;;;;;;;;;5093478;28;20097;-62
2021/12/20 11:21:50;;;;;;;12.10;3.13;;;;;;;;;;5093375;28;20035;-62
2021/12/20 11:24:21;;;;;;;13.20;2.60;;;;;;;;;;5089471;28;20043;-60
2021/12/20 11:26:47;;;;;;;16.65;3.40;;;;;;;;;;5092835;28;20047;-62
2021/12/20 11:29:13;;;;;;;14.80;2.30;;;;;;;;;;5092216;28;20035;-61
2021/12/20 11:31:40;;;;;;;13.30;2.67;;;;;;;;;;5093220;28;20055;-61
2021/12/20 11:34:06;;;;;;;14.63;3.17;;;;;;;;;;5092910;28;20036;-62
2021/12/20 11:36:32;;;;;;;18.10;3.13;;;;;;;;;;5091658;28;20040;-61
2021/12/20 11:38:58;;;;;;;13.20;2.42;;;;;;;;;;5092768;28;20051;-62
2021/12/20 11:41:28;;;;;;;13.43;2.40;;;;;;;;;;5093047;28;20068;-60
2021/12/20 11:43:58;;;;;;;13.75;2.50;;;;;;;;;;5092530;28;20137;-61
2021/12/20 11:46:25;;;;;;;11.27;2.40;;;;;;;;;;5092885;28;20085;-61
2021/12/20 11:48:52;;;;;;;11.18;2.25;;;;;;;;;;5092602;28;20044;-62
2021/12/20 11:51:19;;;;;;;14.23;2.63;;;;;;;;;;5085741;28;20036;-62
2021/12/20 11:53:45;;;;;;;11.80;2.53;;;;;;;;;;5092769;28;20514;-61
2021/12/20 11:56:11;;;;;;;11.27;2.00;;;;;;;;;;5090801;28;20059;-62
2021/12/20 11:58:42;;;;;;;17.48;2.60;;;;;;;;;;5092856;28;20062;-62
2021/12/20 12:01:19;;;;;;;12.07;2.10;;;;;;;;;;5092651;28;20429;-61
2021/12/20 12:03:56;;;;;;;10.80;2.42;;;;;;;;;;5091054;28;20062;-62
2021/12/20 12:06:26;;;;;;;11.63;2.47;;;;;;;;;;5085968;28;20044;-62
2021/12/20 12:08:52;;;;;;;9.90;2.17;;;;;;;;;;5091719;28;20051;-62
2021/12/20 12:11:21;;;;;;;11.13;2.53;;;;;;;;;;5092538;28;20039;-62
2021/12/20 12:13:49;;;;;;;11.95;2.47;;;;;;;;;;5092428;28;20051;-62
2021/12/20 12:16:27;;;;;;;11.57;2.17;;;;;;;;;;5092593;28;20105;-62
2021/12/20 12:18:54;;;;;;;7.07;1.83;;;13.70;99.90;;;;;;5092433;28;20042;-61
2021/12/20 12:21:38;;;;;;;9.30;1.75;;;;;;;;;;5092444;28;20047;-62
2021/12/20 12:24:05;;;;;;;8.43;1.90;;;;;;;;;;5092210;28;20119;-62
2021/12/20 12:26:35;;;;;;;7.68;1.80;;;;;;;;;;5092216;28;20054;-62
2021/12/20 12:29:02;;;;;;;5.07;1.60;;;;;;;;;;5092357;28;20036;-62
2021/12/20 12:31:53;;;;;;;7.43;1.48;;;14.60;99.90;;;;;;5085395;28;20036;-60
2021/12/20 12:34:20;;;;;;;6.80;1.40;;;;;;;;;;5092019;28;20036;-61
2021/12/20 12:36:46;;;;;;;5.78;1.63;;;;;;;;;;5091966;28;20044;-62
2021/12/20 12:39:21;;;;;;;8.63;1.63;;;;;;;;;;5090878;28;20052;-62
2021/12/20 12:41:48;;;;;;;4.68;1.13;;;;;;;;;;5092139;28;20051;-62
2021/12/20 12:44:17;;;;;;;4.65;1.48;;;;;;;;;;5091772;28;20093;-61
2021/12/20 12:46:53;;;;;;;4.63;1.02;;;16.00;97.30;;;;;;5091853;28;20078;-61
2021/12/20 12:49:19;;;;;;;4.05;1.27;;;;;;;;;;5091547;28;20043;-63
2021/12/20 12:51:46;;;;;;;4.53;1.13;;;;;;;;;;5091990;28;20073;-63
2021/12/20 12:54:32;;;;;;;4.22;1.15;;;;;;;;;;5091793;28;20085;-63
2021/12/20 12:57:10;;;;;;;3.67;1.10;;;;;;;;;;5091595;28;20115;-63
2021/12/20 13:00:06;;;;;;;1.65;0.60;;;;;;;;;;5091618;28;20506;-62
2021/12/20 13:02:40;;;;;;;2.83;0.70;;;20.20;86.50;;;;;;5090324;28;20048;-62
2021/12/20 13:05:17;;;;;;;2.38;0.60;;;;;;;;;;5091223;28;20062;-61
2021/12/20 13:07:47;;;;;;;2.72;0.80;;;17.30;85.80;;;;;;5085695;28;20040;-62
2021/12/20 13:10:13;;;;;;;1.73;0.60;;;;;;;;;;5091416;28;20373;-62
2021/12/20 13:12:53;;;;;;;3.00;0.50;;;;;;;;;;5090918;28;20047;-62
2021/12/20 13:15:33;;;;;;;1.25;0.50;;;;;;;;;;5088153;28;20036;-62
2021/12/20 13:18:07;;;;;;;3.47;0.45;;;;;;;;;;5090907;28;20490;-62
2021/12/20 13:20:41;;;;;;;1.00;0.50;;;;;;;;;;5090888;28;20108;-62
2021/12/20 13:23:14;;;;;;;4.72;0.70;;;;;;;;;;5087667;28;20437;-61
2021/12/20 13:25:41;;;;;;;1.33;0.50;;;;;;;;;;5090748;28;20039;-61
2021/12/20 13:28:09;;;;;;;2.97;0.63;;;;;;;;;;5090855;28;20031;-62
2021/12/20 13:30:40;;;;;;;3.60;0.55;;;;;;;;;;5090647;28;20499;-61
2021/12/20 13:33:06;;;;;;;2.83;0.60;;;;;;;;;;5090460;28;20047;-61
2021/12/20 13:35:33;;;;;;;2.25;0.60;;;;;;;;;;5090718;28;20051;-62
2021/12/20 13:38:22;;;;;;;1.38;0.50;;;11.70;91.40;;;;;;5090669;28;20085;-62
2021/12/20 13:40:50;;;;;;;3.35;0.60;;;;;;;;;;5090885;28;20047;-61
2021/12/20 13:43:21;;;;;;;2.58;0.82;;;;;;;;;;5090738;28;20040;-60
2021/12/20 13:46:05;;;;;;;2.78;0.95;;;10.70;91.90;;;;;;5090362;28;20032;-61
2021/12/20 13:48:31;;;;;;;3.25;0.85;;;;;;;;;;5090595;28;20402;-61
2021/12/20 13:50:57;;;;;;;6.30;0.90;;;;;;;;;;5090866;28;20040;-62
2021/12/20 13:53:33;;;;;;;2.92;0.70;;;;;;;;;;5090847;28;20182;-61
2021/12/20 13:56:01;;;;;;;2.47;0.63;;;;;;;;;;5090733;28;20508;-62
2021/12/20 13:58:27;;;;;;;1.35;0.50;;;;;;;;;;5090775;28;20044;-61
2021/12/20 14:00:54;;;;;;;3.30;0.60;;;;;;;;;;5090735;28;20039;-61
2021/12/20 14:03:20;;;;;;;3.42;0.80;;;;;;;;;;5089255;28;20040;-61
2021/12/20 14:05:47;;;;;;;1.95;0.60;;;;;;;;;;5090550;28;20138;-61
2021/12/20 14:08:23;;;;;;;2.40;0.68;;;;;;;;;;5090791;28;20540;-61
2021/12/20 14:10:50;;;;;;;3.38;0.77;;;;;;;;;;5090584;28;20068;-61
2021/12/20 14:13:26;;;;;;;5.43;0.95;;;;;;;;;;5090942;28;20040;-61
2021/12/20 14:15:59;;;;;;;4.70;0.85;;;;;;;;;;5090629;28;20044;-60
2021/12/20 14:18:36;;;;;;;2.20;0.70;;;;;;;;;;5090677;28;20044;-61
2021/12/20 14:21:04;;;;;;;4.25;1.13;;;;;;;;;;5090584;28;20382;-61
2021/12/20 14:23:31;;;;;;;5.38;0.90;;;;;;;;;;5091029;28;20040;-61
2021/12/20 14:26:08;;;;;;;3.33;0.77;;;;;;;;;;5093566;28;20039;-61
2021/12/20 14:28:37;;;;;;;3.75;0.80;;;;;;;;;;5094460;28;20120;-62
2021/12/20 14:31:13;;;;;;;2.25;0.90;;;;;;;;;;5094535;28;20048;-60
2021/12/20 14:33:41;;;;;;;4.55;1.00;;;;;;;;;;5094124;28;20123;-62
2021/12/20 14:36:11;;;;;;;2.05;0.88;;;;;;;;;;5093357;28;20210;-61
2021/12/20 14:38:37;;;;;;;3.25;1.40;;;;;;;;;;5094295;28;20044;-61
2021/12/20 14:41:34;;;;;;;2.80;1.30;;;7.50;99.90;;;;;;5094331;28;20394;-62
2021/12/20 14:44:05;;;;;;;2.00;0.82;;;;;;;;;;5031465;28;20056;-60
2021/12/20 14:46:36;;;;;;;3.83;0.90;;;;;;;;;;5031647;28;20045;-61
2021/12/20 14:49:23;;;;;;;3.60;0.80;;;;;;;;;;5031767;28;20567;-59
2021/12/20 14:51:49;;;;;;;2.67;1.10;;;;;;;;;;5031551;28;20030;-61
2021/12/20 14:54:17;;;;;;;3.47;1.40;;;;;;;;;;5031534;28;20045;-61
2021/12/20 14:56:51;;;;;;;2.88;1.30;;;;;;;;;;5031422;28;20502;-61
2021/12/20 14:59:17;;;;;;;4.95;1.80;;;;;;;;;;5031771;28;20044;-61